Time;durP1;ratioP1;P1;durP2;ratioP2;P2;SDS_P1;SDS_P2;PMS_P1;PMS_P2;Temp;Humidity;BMP_temperature;BMP_pressure;BME280_temperature;BME280_humidity;BME280_pressure;Samples;Min_cycle;Max_cycle;Signal;HPM_P1;HPM_P2
2022/08/16 00:00:22;;;;;;;16.45;7.03;;;;;;;21.33;nan;-24409.81;4955817;28;20178;-61
2022/08/16 00:02:48;;;;;;;16.90;7.25;;;;;;;21.17;nan;-24405.53;4955289;28;20363;-62
2022/08/16 00:05:14;;;;;;;12.15;6.25;;;;;;;21.02;nan;-24401.34;4956259;28;20261;-59
2022/08/16 00:07:40;;;;;;;13.20;6.57;;;;;;;20.77;nan;-24394.56;4955201;28;20171;-60
2022/08/16 00:10:09;;;;;;;12.73;6.97;;;;;;;21.05;nan;-24402.34;4956217;28;20181;-60
2022/08/16 00:12:35;;;;;;;11.43;5.95;;;;;;;20.55;nan;-24388.47;4955776;28;20178;-61
2022/08/16 00:15:06;;;;;;;13.52;6.80;;;;;;;20.44;nan;-24385.53;4955619;28;20185;-60
2022/08/16 00:17:31;;;;;;;13.27;6.20;;;;;;;20.52;nan;-24387.63;4955709;28;20214;-61
2022/08/16 00:19:57;;;;;;;13.77;6.53;;;;;;;20.47;nan;-24386.25;4955676;28;20181;-60
2022/08/16 00:22:24;;;;;;;11.75;6.40;;;;;;;20.68;nan;-24392.19;4955433;28;20174;-61
2022/08/16 00:24:49;;;;;;;10.85;6.38;;;;;;;20.62;nan;-24390.53;4955686;28;20187;-61
2022/08/16 00:27:15;;;;;;;12.63;6.50;;;;;;;20.38;nan;-24383.75;4954941;28;20542;-61
2022/08/16 00:29:41;;;;;;;12.90;6.30;;;;;;;19.82;nan;-24368.59;4955427;28;20170;-62
2022/08/16 00:32:07;;;;;;;11.52;6.68;;;;;;;20.73;nan;-24393.59;4954638;28;20653;-61
2022/08/16 00:34:36;;;;;;;11.50;6.20;;;;;;;20.70;nan;-24392.75;4955209;28;20196;-59
2022/08/16 00:37:02;;;;;;;13.30;6.43;;;;;;;20.52;nan;-24387.63;4954819;28;20194;-62
2022/08/16 00:39:27;;;;;;;15.30;6.05;;;;;;;20.92;nan;-24398.72;4955164;28;20182;-60
2022/08/16 00:41:52;;;;;;;12.15;6.70;;;;;;;20.93;nan;-24398.88;4955504;28;20237;-62
2022/08/16 00:44:20;;;;;;;13.10;7.45;;;;;;;20.64;nan;-24391.09;4955163;28;20170;-63
2022/08/16 00:46:56;;;;;;;10.77;6.53;;;;;;;21.05;nan;-24402.19;4955051;28;20206;-63
2022/08/16 00:49:23;;;;;;;12.30;6.47;;;;;;;20.69;nan;-24392.34;4955213;28;20556;-62
2022/08/16 00:51:51;;;;;;;12.73;6.57;;;;;;;20.90;nan;-24398.03;4955103;28;20206;-63
2022/08/16 00:54:17;;;;;;;14.18;6.60;;;;;;;20.85;nan;-24396.78;4955036;28;20180;-61
2022/08/16 00:56:47;;;;;;;11.07;6.25;;;;;;;20.50;nan;-24387.22;4954981;28;20296;-61
2022/08/16 00:59:14;;;;;;;10.13;6.35;;;;;;;20.20;nan;-24378.88;4954800;28;20620;-62
2022/08/16 01:01:40;;;;;;;13.48;6.57;;;;;;;20.75;nan;-24394.00;4954810;28;20278;-61
2022/08/16 01:04:07;;;;;;;13.43;6.13;;;;;;;20.39;nan;-24384.16;4955188;28;20178;-63
2022/08/16 01:06:33;;;;;;;11.32;6.13;;;;;;;20.67;nan;-24391.94;4954273;28;20174;-63
2022/08/16 01:09:04;;;;;;;13.57;6.35;;;;;;;20.35;nan;-24383.03;4955012;28;21089;-61
2022/08/16 01:11:30;;;;;;;13.77;6.45;;;;;;;20.38;nan;-24383.75;4955160;28;20189;-60
2022/08/16 01:14:01;;;;;;;12.88;6.68;;;;;;;20.52;nan;-24387.63;4954657;28;20182;-60
2022/08/16 01:16:28;;;;;;;10.00;6.05;;;;;;;20.24;nan;-24380.13;4954531;28;20232;-59
2022/08/16 01:19:06;;;;;;;13.32;6.50;;;;;;;20.61;nan;-24390.25;4953997;28;20178;-62
2022/08/16 01:21:35;;;;;;;12.88;6.07;;;;;;;20.64;nan;-24390.97;4953844;29;20264;-62
2022/08/16 01:24:38;;;;;;;12.32;6.35;;;;;;;20.60;nan;-24389.84;4954524;29;20185;-60
2022/08/16 01:27:11;;;;;;;10.52;6.18;;;;;;;20.24;nan;-24380.00;4954186;28;20193;-61
2022/08/16 01:29:43;;;;;;;11.38;6.22;;;;;;;20.34;nan;-24382.78;4954465;29;20672;-60
2022/08/16 01:32:08;;;;;;;13.05;6.68;;;;;;;20.23;nan;-24379.84;4954505;29;20209;-60
2022/08/16 01:34:34;;;;;;;12.32;6.60;;;;;;;20.25;nan;-24380.41;4954528;29;20273;-61
2022/08/16 01:37:06;;;;;;;11.63;5.93;;;;;;;20.25;nan;-24380.41;4952494;28;20218;-61
2022/08/16 01:39:32;;;;;;;13.43;6.63;;;;;;;20.20;nan;-24379.00;4953533;28;20182;-60
2022/08/16 01:41:59;;;;;;;13.63;6.53;;;;;;;20.43;nan;-24385.28;4953128;28;20185;-61
2022/08/16 01:44:24;;;;;;;10.52;5.97;;;;;;;20.45;nan;-24385.81;4953333;28;20201;-61
2022/08/16 01:46:52;;;;;;;11.63;6.40;;;;;;;20.44;nan;-24385.41;4953982;28;20649;-60
2022/08/16 01:49:25;;;;;;;12.68;7.00;;;;;;;20.30;nan;-24381.66;4953611;28;20181;-62
2022/08/16 01:51:56;;;;;;;12.70;6.90;;;;;;;20.23;nan;-24379.84;4953761;28;20253;-61
2022/08/16 01:54:21;;;;;;;13.00;6.78;;;;;;;20.25;nan;-24380.41;4953625;28;20170;-60
2022/08/16 01:56:47;;;;;;;12.57;6.50;;;;;;;20.13;nan;-24376.94;4953108;28;20285;-61
2022/08/16 01:59:13;;;;;;;18.13;7.63;;;;;;;20.02;nan;-24373.88;4953558;28;20184;-62
2022/08/16 02:01:39;;;;;;;13.75;6.95;;;;;;;20.23;nan;-24379.72;4953041;28;20210;-61
2022/08/16 02:04:04;;;;;;;16.02;6.22;;;;;;;20.23;nan;-24379.72;4953564;28;20310;-61
2022/08/16 02:06:30;;;;;;;13.70;6.80;;;;;;;19.39;nan;-24356.63;4953632;28;20182;-62
2022/08/16 02:08:56;;;;;;;13.98;7.07;;;;;;;20.12;nan;-24376.66;4952719;28;20174;-61
2022/08/16 02:11:23;;;;;;;12.00;6.65;;;;;;;20.44;nan;-24385.53;4953493;28;20174;-61
2022/08/16 02:13:50;;;;;;;11.90;5.88;;;;;;;20.40;nan;-24384.28;4953683;28;20224;-60
2022/08/16 02:16:15;;;;;;;13.07;6.22;;;;;;;19.89;nan;-24370.41;4953373;28;20226;-60
2022/08/16 02:18:41;;;;;;;18.85;7.47;;;;;;;20.16;nan;-24377.91;4953874;28;20192;-59
2022/08/16 02:21:08;;;;;;;13.80;6.70;;;;;;;19.98;nan;-24372.91;4953546;28;20637;-61
2022/08/16 02:23:36;;;;;;;11.73;6.97;;;;;;;19.96;nan;-24372.34;4952677;28;20228;-60
2022/08/16 02:26:02;;;;;;;14.73;6.65;;;;;;;20.32;nan;-24382.22;4953551;28;20196;-62
2022/08/16 02:28:27;;;;;;;12.20;5.82;;;;;;;20.27;nan;-24380.97;4953361;28;20233;-60
2022/08/16 02:30:56;;;;;;;15.65;6.13;;;;;;;20.07;nan;-24375.25;4953675;28;20182;-61
2022/08/16 02:33:22;;;;;;;12.48;6.70;;;;;;;20.11;nan;-24376.50;4967806;28;20170;-62
2022/08/16 02:35:48;;;;;;;13.50;6.28;;;;;;;20.10;nan;-24376.09;4953856;28;20186;-62
2022/08/16 02:38:13;;;;;;;12.20;6.25;;;;;;;20.02;nan;-24373.88;4952294;28;20273;-61
2022/08/16 02:40:39;;;;;;;12.88;6.38;;;;;;;19.66;nan;-24364.00;4953255;29;20273;-62
2022/08/16 02:43:05;;;;;;;13.70;6.40;;;;;;;19.75;nan;-24366.50;4951886;29;20657;-62
2022/08/16 02:45:31;;;;;;;12.75;6.45;;;;;;;20.19;nan;-24378.59;4953394;29;20658;-62
2022/08/16 02:47:57;;;;;;;10.57;5.88;;;;;;;20.01;nan;-24373.72;4953486;28;20184;-62
2022/08/16 02:50:23;;;;;;;13.30;6.78;;;;;;;20.10;nan;-24376.25;4952496;29;20695;-62
2022/08/16 02:52:49;;;;;;;13.25;6.45;;;;;;;20.06;nan;-24375.13;4952985;29;20184;-62
2022/08/16 02:55:15;;;;;;;11.73;6.30;;;;;;;20.13;nan;-24377.06;4955214;28;20182;-61
2022/08/16 02:57:40;;;;;;;13.07;6.78;;;;;;;20.09;nan;-24375.97;4957169;29;20759;-61
2022/08/16 03:00:11;;;;;;;12.52;6.93;;;;;;;19.71;nan;-24365.53;4956971;29;20257;-62
2022/08/16 03:02:39;;;;;;;12.82;5.93;;;;;;;20.08;nan;-24375.69;4957354;29;20557;-61
2022/08/16 03:05:05;;;;;;;12.27;6.72;;;;;;;19.79;nan;-24367.63;4957091;29;20747;-62
2022/08/16 03:07:31;;;;;;;14.32;6.50;;;;;;;20.14;nan;-24377.34;4957072;29;20688;-62
2022/08/16 03:09:56;;;;;;;10.95;6.13;;;;;;;19.76;nan;-24366.78;4956652;28;20174;-61
2022/08/16 03:12:22;;;;;;;11.98;6.38;;;;;;;19.89;nan;-24370.25;4956719;29;20197;-62
2022/08/16 03:14:48;;;;;;;10.30;6.00;;;;;;;20.36;nan;-24383.19;4956656;29;20174;-62
2022/08/16 03:17:34;;;;;;;10.75;5.97;;;;;;;20.47;nan;-24386.25;4956744;29;20209;-62
2022/08/16 03:20:08;;;;;;;10.80;5.70;;;;;;;20.33;nan;-24382.50;4956006;29;20182;-61
2022/08/16 03:22:33;;;;;;;12.43;5.88;;;;;;;20.03;nan;-24374.28;4957005;29;20179;-62
2022/08/16 03:25:03;;;;;;;12.98;6.38;;;;;;;19.80;nan;-24367.91;4957117;29;20281;-62
2022/08/16 03:27:32;;;;;;;14.68;6.85;;;;;;;19.58;nan;-24361.78;4953630;29;20185;-62
2022/08/16 03:30:20;;;;;;;13.48;6.88;;;;;;;19.59;nan;-24362.19;4949448;29;20185;-60
2022/08/16 03:32:47;;;;;;;12.73;7.13;;;;;;;19.74;nan;-24366.22;4950144;29;20190;-62
2022/08/16 03:35:13;;;;;;;13.77;6.53;;;;;;;20.03;nan;-24374.28;4950325;29;20277;-60
2022/08/16 03:37:42;;;;;;;13.30;7.82;;;;;;;19.58;nan;-24361.91;4950310;29;20213;-62
2022/08/16 03:40:09;;;;;;;12.90;6.35;;;;;;;20.00;nan;-24373.31;4950657;29;20241;-61
2022/08/16 03:42:34;;;;;;;14.70;6.68;;;;;;;20.02;nan;-24374.00;4950712;29;20701;-61
2022/08/16 03:45:00;;;;;;;11.23;6.25;;;;;;;20.06;nan;-24375.13;4949790;29;20181;-61
2022/08/16 03:47:27;;;;;;;13.55;6.53;;;;;;;20.00;nan;-24373.47;4949558;29;20182;-59
2022/08/16 03:49:53;;;;;;;11.95;7.07;;;;;;;19.72;nan;-24365.81;4949893;29;20193;-60
2022/08/16 03:52:20;;;;;;;12.60;6.95;;;;;;;20.18;nan;-24378.47;4949875;29;20190;-61
2022/08/16 03:54:46;;;;;;;15.35;6.80;;;;;;;21.13;nan;-24404.56;4949737;29;20209;-61
2022/08/16 03:57:12;;;;;;;12.68;6.55;;;;;;;21.74;nan;-24421.19;4949715;29;20242;-61
2022/08/16 03:59:38;;;;;;;13.30;7.72;;;;;;;22.36;nan;-24438.22;4950166;29;20293;-61
2022/08/16 04:02:03;;;;;;;15.00;7.38;;;;;;;22.98;nan;-24454.94;4949155;29;20201;-62
2022/08/16 04:04:30;;;;;;;12.75;6.93;;;;;;;23.71;nan;-24475.13;4950627;28;20264;-61
2022/08/16 04:06:55;;;;;;;12.13;6.65;;;;;;;24.32;nan;-24491.69;4950068;28;20273;-62
2022/08/16 04:09:21;;;;;;;12.68;6.60;;;;;;;24.90;nan;-24507.53;4948736;29;20276;-62
2022/08/16 04:11:47;;;;;;;14.57;6.90;;;;;;;25.70;nan;-24529.25;4949466;29;20623;-60
2022/08/16 04:14:12;;;;;;;10.95;6.20;;;;;;;26.38;nan;-24547.69;4949630;29;20271;-62
2022/08/16 04:16:38;;;;;;;11.02;6.35;;;;;;;26.64;nan;-24554.69;4948698;29;20221;-62
2022/08/16 04:19:03;;;;;;;14.00;6.38;;;;;;;27.37;nan;-24574.56;4961096;28;20216;-60
2022/08/16 04:21:34;;;;;;;10.18;6.10;;;;;;;27.50;nan;-24578.00;4965381;28;20177;-59
2022/08/16 04:24:00;;;;;;;13.52;6.82;;;;;;;27.72;nan;-24584.03;4963352;28;20209;-62
2022/08/16 04:26:26;;;;;;;11.98;6.60;;;;;;;27.74;nan;-24584.44;4966242;28;20260;-61
2022/08/16 04:28:52;;;;;;;9.68;6.30;;;;;;;27.70;nan;-24583.47;4964748;28;20185;-61
2022/08/16 04:31:18;;;;;;;13.82;6.93;;;;;;;28.14;nan;-24595.25;4965390;28;20241;-61
2022/08/16 04:33:43;;;;;;;10.32;6.45;;;;;;;28.38;nan;-24601.97;4955311;28;20217;-62
2022/08/16 04:36:10;;;;;;;12.50;6.30;;;;;;;28.10;nan;-24594.44;4953890;28;20226;-62
2022/08/16 04:38:36;;;;;;;12.70;6.60;;;;;;;28.04;nan;-24592.66;4955325;28;20604;-62
2022/08/16 04:41:02;;;;;;;10.50;6.32;;;;;;;28.49;nan;-24604.84;4955319;29;20174;-60
2022/08/16 04:43:27;;;;;;;11.45;6.43;;;;;;;28.33;nan;-24600.47;4954816;28;20178;-60
2022/08/16 04:45:54;;;;;;;14.40;7.70;;;;;;;27.74;nan;-24584.59;4955263;29;20515;-62
2022/08/16 04:48:19;;;;;;;13.82;7.07;;;;;;;27.31;nan;-24572.78;4954842;28;20252;-62
2022/08/16 04:50:45;;;;;;;11.13;6.53;;;;;;;26.91;nan;-24561.97;4954920;28;20252;-60
2022/08/16 04:53:10;;;;;;;11.35;6.60;;;;;;;26.85;nan;-24560.31;4954884;28;20170;-62
2022/08/16 04:55:36;;;;;;;10.32;6.50;;;;;;;27.15;nan;-24568.69;4954734;28;20627;-60
2022/08/16 04:58:02;;;;;;;10.85;6.35;;;;;;;27.09;nan;-24567.03;4953165;28;20212;-61
2022/08/16 05:00:35;;;;;;;11.82;6.95;;;;;;;26.97;nan;-24563.75;4952577;29;20572;-60
2022/08/16 05:03:04;;;;;;;11.48;6.57;;;;;;;26.65;nan;-24554.97;4949589;29;20594;-60
2022/08/16 05:05:31;;;;;;;11.68;6.65;;;;;;;26.49;nan;-24550.69;4954466;29;20186;-62
2022/08/16 05:07:56;;;;;;;9.57;5.90;;;;;;;26.33;nan;-24546.31;4954208;29;20213;-62
2022/08/16 05:10:22;;;;;;;11.63;5.70;;;;;;;25.76;nan;-24530.78;4954537;29;20276;-63
2022/08/16 05:12:48;;;;;;;9.50;5.85;;;;;;;25.33;nan;-24519.22;4954020;29;20162;-62
2022/08/16 05:15:13;;;;;;;14.32;7.22;;;;;;;25.30;nan;-24518.25;4953978;29;20237;-62
2022/08/16 05:17:39;;;;;;;11.77;6.72;;;;;;;24.90;nan;-24507.53;4953727;28;20296;-60
2022/08/16 05:20:08;;;;;;;12.45;6.80;;;;;;;25.36;nan;-24520.03;4954355;29;20189;-62
2022/08/16 05:22:35;;;;;;;14.77;6.55;;;;;;;25.15;nan;-24514.13;4954252;29;20170;-62
2022/08/16 05:25:02;;;;;;;12.00;6.32;;;;;;;25.26;nan;-24517.16;4954227;29;20646;-62
2022/08/16 05:27:28;;;;;;;10.73;6.10;;;;;;;24.98;nan;-24509.72;4954293;29;20171;-61
2022/08/16 05:29:54;;;;;;;11.38;6.22;;;;;;;25.03;nan;-24510.97;4951182;28;20705;-61
2022/08/16 05:32:19;;;;;;;13.05;6.03;;;;;;;25.66;nan;-24528.03;4952890;28;20718;-61
2022/08/16 05:34:45;;;;;;;10.52;6.30;;;;;;;25.65;nan;-24527.88;4953529;28;20185;-61
2022/08/16 05:37:11;;;;;;;10.63;6.13;;;;;;;26.09;nan;-24539.84;4953769;28;20260;-61
2022/08/16 05:39:36;;;;;;;11.98;6.15;;;;;;;26.07;nan;-24539.16;4953819;28;20166;-60
2022/08/16 05:42:02;;;;;;;10.80;6.10;;;;;;;26.31;nan;-24545.91;4952777;28;20861;-61
2022/08/16 05:44:28;;;;;;;11.23;6.40;;;;;;;26.32;nan;-24546.03;4961955;28;20538;-61
2022/08/16 05:46:58;;;;;;;9.35;5.65;;;;;;;26.69;nan;-24556.19;4964253;28;20637;-60
2022/08/16 05:49:26;;;;;;;12.77;6.78;;;;;;;26.35;nan;-24547.00;4954220;29;20240;-62
2022/08/16 05:51:53;;;;;;;11.95;6.40;;;;;;;26.43;nan;-24549.06;4954804;29;20520;-61
2022/08/16 05:54:20;;;;;;;11.63;6.13;;;;;;;26.49;nan;-24550.69;4954518;29;20213;-61
2022/08/16 05:56:45;;;;;;;14.02;6.28;;;;;;;26.43;nan;-24549.06;4953894;29;20233;-60
2022/08/16 05:59:13;;;;;;;9.73;5.57;;;;;;;26.41;nan;-24548.38;4954210;29;20626;-60
2022/08/16 06:01:40;;;;;;;9.70;5.93;;;;;;;26.86;nan;-24560.59;4954066;29;20182;-60
2022/08/16 06:04:07;;;;;;;10.13;5.55;;;;;;;27.03;nan;-24565.25;4953557;29;20287;-62
2022/08/16 06:06:32;;;;;;;9.48;5.80;;;;;;;27.01;nan;-24564.84;4953938;29;20175;-62
2022/08/16 06:08:58;;;;;;;8.88;5.03;;;;;;;27.16;nan;-24568.94;4953359;29;20177;-60
2022/08/16 06:11:23;;;;;;;8.65;5.03;;;;;;;27.51;nan;-24578.28;4953880;29;20637;-61
2022/08/16 06:13:49;;;;;;;8.40;4.85;;;;;;;27.55;nan;-24579.38;4954305;29;20197;-62
2022/08/16 06:16:14;;;;;;;8.95;5.63;;;;;;;27.35;nan;-24574.03;4953948;29;20233;-61
2022/08/16 06:18:43;;;;;;;8.32;5.30;;;;;;;27.23;nan;-24570.88;4954082;29;20261;-62
2022/08/16 06:21:10;;;;;;;11.23;5.35;;;;;;;27.14;nan;-24568.41;4953830;29;20253;-60
2022/08/16 06:23:35;;;;;;;10.15;5.35;;;;;;;27.01;nan;-24564.84;4953393;29;20664;-60
2022/08/16 06:26:01;;;;;;;7.35;4.53;;;;;;;27.24;nan;-24571.16;4953802;29;20178;-60
2022/08/16 06:28:26;;;;;;;10.23;5.38;;;;;;;27.35;nan;-24573.88;4953486;28;20178;-60
2022/08/16 06:30:51;;;;;;;8.52;5.40;;;;;;;26.94;nan;-24562.91;4953236;28;20256;-60
2022/08/16 06:33:18;;;;;;;12.07;5.55;;;;;;;26.94;nan;-24562.91;4954262;29;20170;-60
2022/08/16 06:35:45;;;;;;;8.70;4.93;;;;;;;27.11;nan;-24567.44;4954000;29;20174;-61
2022/08/16 06:38:10;;;;;;;8.93;5.47;;;;;;;27.33;nan;-24573.34;4953417;29;20289;-61
2022/08/16 06:40:36;;;;;;;7.90;5.15;;;;;;;27.36;nan;-24574.31;4954040;29;20249;-59
2022/08/16 06:43:01;;;;;;;10.95;6.03;;;;;;;27.20;nan;-24570.06;4953893;29;20198;-61
2022/08/16 06:45:26;;;;;;;8.88;5.20;;;;;;;27.23;nan;-24570.88;4953845;29;20281;-60
2022/08/16 06:47:52;;;;;;;8.18;4.88;;;;;;;27.57;nan;-24579.91;4953239;29;20601;-61
2022/08/16 06:50:18;;;;;;;9.25;5.28;;;;;;;27.66;nan;-24582.53;4953581;29;20170;-60
2022/08/16 06:52:44;;;;;;;9.50;5.30;;;;;;;27.15;nan;-24568.69;4953380;29;20170;-59
2022/08/16 06:55:11;;;;;;;9.52;5.25;;;;;;;27.83;nan;-24587.03;4953391;29;20646;-59
2022/08/16 06:57:37;;;;;;;10.32;5.70;;;;;;;27.47;nan;-24577.31;4952907;29;20201;-60
2022/08/16 07:00:12;;;;;;;10.10;6.00;;;;;;;27.60;nan;-24580.75;4953534;29;20190;-62
2022/08/16 07:02:38;;;;;;;13.68;6.47;;;;;;;27.53;nan;-24578.97;4953566;29;20181;-60
2022/08/16 07:05:05;;;;;;;11.10;5.72;;;;;;;28.08;nan;-24593.88;4953494;29;20228;-60
2022/08/16 07:07:31;;;;;;;7.72;4.85;;;;;;;28.38;nan;-24601.84;4934569;29;20551;-60
2022/08/16 07:09:57;;;;;;;9.88;5.25;;;;;;;28.51;nan;-24605.53;4934710;29;20329;-62
2022/08/16 07:12:22;;;;;;;9.27;5.45;;;;;;;28.79;nan;-24612.91;4934942;29;20178;-62
2022/08/16 07:14:48;;;;;;;9.35;5.80;;;;;;;28.40;nan;-24602.38;4933905;29;20645;-61
2022/08/16 07:17:14;;;;;;;9.50;5.43;;;;;;;28.45;nan;-24603.75;4934220;29;20233;-61
2022/08/16 07:19:40;;;;;;;10.38;6.20;;;;;;;28.77;nan;-24612.50;4934429;29;20232;-61
2022/08/16 07:22:05;;;;;;;10.63;6.10;;;;;;;28.58;nan;-24607.16;4933569;29;20587;-61
2022/08/16 07:24:31;;;;;;;9.93;5.95;;;;;;;28.59;nan;-24607.56;4934080;29;20177;-60
2022/08/16 07:26:58;;;;;;;10.82;5.75;;;;;;;28.92;nan;-24616.59;4933969;29;20178;-61
2022/08/16 07:29:23;;;;;;;12.50;6.35;;;;;;;28.74;nan;-24611.69;4934143;29;20171;-59
2022/08/16 07:31:49;;;;;;;9.82;6.13;;;;;;;28.83;nan;-24614.00;4934288;29;20189;-60
2022/08/16 07:34:14;;;;;;;16.17;7.53;;;;;;;29.10;nan;-24621.25;4933988;29;20265;-60
2022/08/16 07:36:40;;;;;;;10.93;6.40;;;;;;;29.36;nan;-24628.47;4933759;29;20669;-62
2022/08/16 07:39:07;;;;;;;8.85;5.40;;;;;;;29.16;nan;-24622.88;4934089;29;20184;-60
2022/08/16 07:41:33;;;;;;;10.60;5.85;;;;;;;29.46;nan;-24630.94;4936794;29;20261;-60
2022/08/16 07:43:58;;;;;;;11.98;6.57;;;;;;;29.35;nan;-24628.22;4937550;29;20257;-62
2022/08/16 07:46:24;;;;;;;10.60;5.80;;;;;;;29.39;nan;-24629.16;4937264;29;20174;-61
2022/08/16 07:48:49;;;;;;;11.55;5.90;;;;;;;29.43;nan;-24630.25;4938395;29;20204;-60
2022/08/16 07:51:15;;;;;;;9.02;5.22;;;;;;;29.51;nan;-24632.44;4956361;29;20180;-61
2022/08/16 07:53:40;;;;;;;8.63;5.32;;;;;;;29.74;nan;-24638.59;4956237;29;20174;-60
2022/08/16 07:56:06;;;;;;;9.77;5.85;;;;;;;29.43;nan;-24630.25;4956189;29;20721;-61
2022/08/16 07:58:32;;;;;;;11.35;6.32;;;;;;;29.51;nan;-24632.31;4956614;29;20173;-61
2022/08/16 08:01:00;;;;;;;11.90;6.50;;;;;;;29.33;nan;-24627.66;4956471;28;20279;-61
2022/08/16 08:03:26;;;;;;;10.27;6.05;;;;;;;29.60;nan;-24634.91;4956089;29;20185;-60
2022/08/16 08:05:52;;;;;;;11.73;5.60;;;;;;;29.45;nan;-24630.81;4956580;29;20625;-62
2022/08/16 08:08:17;;;;;;;18.60;8.73;;;;;;;29.42;nan;-24630.13;4956263;29;20209;-61
2022/08/16 08:10:42;;;;;;;10.00;5.97;;;;;;;29.35;nan;-24628.06;4956305;29;20253;-62
2022/08/16 08:13:08;;;;;;;12.77;7.43;;;;;;;29.79;nan;-24640.09;4955817;29;20228;-60
2022/08/16 08:15:34;;;;;;;9.68;5.88;;;;;;;29.92;nan;-24643.38;4955425;29;20749;-61
2022/08/16 08:18:00;;;;;;;12.10;6.28;;;;;;;29.89;nan;-24642.53;4955653;29;20284;-62
2022/08/16 08:20:26;;;;;;;10.38;6.32;;;;;;;29.80;nan;-24640.34;4956321;29;20181;-61
2022/08/16 08:22:53;;;;;;;9.68;5.15;;;;;;;30.12;nan;-24648.81;4955646;29;20530;-60
2022/08/16 08:25:19;;;;;;;8.52;5.70;;;;;;;30.09;nan;-24648.00;4956021;29;20510;-60
2022/08/16 08:27:46;;;;;;;9.77;5.45;;;;;;;30.24;nan;-24652.09;4955761;29;20181;-61
2022/08/16 08:30:13;;;;;;;11.32;5.40;;;;;;;30.14;nan;-24649.38;4956601;29;20170;-62
2022/08/16 08:32:38;;;;;;;9.98;5.40;;;;;;;30.06;nan;-24647.19;4955275;29;20198;-60
2022/08/16 08:35:05;;;;;;;10.15;5.90;;;;;;;30.49;nan;-24658.91;4955868;29;20640;-62
2022/08/16 08:37:32;;;;;;;9.88;5.25;;;;;;;30.17;nan;-24650.19;4955486;29;20283;-61
2022/08/16 08:39:58;;;;;;;7.95;4.93;;;;;;;30.17;nan;-24650.19;4955596;29;20252;-60
2022/08/16 08:42:23;;;;;;;10.25;6.22;;;;;;;30.30;nan;-24653.72;4954037;28;20261;-61
2022/08/16 08:44:49;;;;;;;9.73;6.03;;;;;;;30.49;nan;-24658.91;4954697;28;20178;-60
2022/08/16 08:47:15;;;;;;;10.93;6.07;;;;;;;30.42;nan;-24656.84;4954992;28;20189;-61
2022/08/16 08:49:40;;;;;;;8.02;4.97;;;;;;;30.61;nan;-24662.16;4955284;28;20173;-61
2022/08/16 08:52:06;;;;;;;8.25;4.93;;;;;;;30.65;nan;-24663.13;4954124;28;20207;-61
2022/08/16 08:54:32;;;;;;;9.80;5.15;;;;;;;30.62;nan;-24662.44;4954889;28;20529;-60
2022/08/16 08:56:58;;;;;;;9.27;5.00;;;;;;;30.98;nan;-24672.09;4954758;28;20280;-60
2022/08/16 08:59:23;;;;;;;6.97;4.32;;;;;;;31.09;nan;-24674.97;4955015;28;20516;-61
2022/08/16 09:01:49;;;;;;;8.60;4.53;;;;;;;30.93;nan;-24670.63;4954533;28;20176;-61
2022/08/16 09:04:16;;;;;;;6.97;4.20;;;;;;;30.90;nan;-24669.78;4954470;28;20177;-61
2022/08/16 09:06:42;;;;;;;7.78;4.13;;;;;;;30.76;nan;-24666.13;4954700;28;20680;-61
2022/08/16 09:09:08;;;;;;;5.82;3.80;;;;;;;31.02;nan;-24673.06;4954837;28;20162;-59
2022/08/16 09:11:35;;;;;;;6.13;4.40;;;;;;;31.27;nan;-24679.72;4954634;28;20289;-61
2022/08/16 09:14:01;;;;;;;6.97;4.07;;;;;;;31.36;nan;-24682.19;4954971;28;20204;-62
2022/08/16 09:16:26;;;;;;;7.50;4.75;;;;;;;31.43;nan;-24684.22;4954893;28;20264;-61
2022/08/16 09:18:52;;;;;;;7.40;4.55;;;;;;;31.34;nan;-24681.78;4955150;28;20198;-61
2022/08/16 09:21:19;;;;;;;7.90;4.32;;;;;;;31.27;nan;-24679.72;4954806;28;20200;-60
2022/08/16 09:23:45;;;;;;;6.63;3.90;;;;;;;31.52;nan;-24686.53;4955343;28;20177;-61
2022/08/16 09:26:14;;;;;;;13.38;5.22;;;;;;;31.55;nan;-24687.50;4954960;28;20543;-60
2022/08/16 09:28:41;;;;;;;6.10;3.72;;;;;;;31.69;nan;-24691.03;4955142;28;20173;-60
2022/08/16 09:31:07;;;;;;;5.88;3.90;;;;;;;31.60;nan;-24688.56;4954598;28;20244;-61
2022/08/16 09:33:32;;;;;;;5.47;3.47;;;;;;;31.71;nan;-24691.56;4955257;28;20651;-60
2022/08/16 09:35:58;;;;;;;6.32;3.88;;;;;;;31.51;nan;-24686.25;4953399;29;20262;-60
2022/08/16 09:38:25;;;;;;;5.18;3.95;;;;;;;31.92;nan;-24697.28;4954858;28;20196;-61
2022/08/16 09:40:50;;;;;;;4.90;3.58;;;;;;;31.67;nan;-24690.47;4954667;28;20178;-61
2022/08/16 09:43:18;;;;;;;6.43;3.88;;;;;;;31.68;nan;-24690.88;4955470;28;20170;-60
2022/08/16 09:45:45;;;;;;;5.13;3.47;;;;;;;31.88;nan;-24696.19;4954347;28;20192;-61
2022/08/16 09:48:13;;;;;;;4.93;3.65;;;;;;;31.93;nan;-24697.53;4954653;28;20232;-61
2022/08/16 09:50:42;;;;;;;4.72;3.28;;;;;;;32.00;nan;-24699.44;4954726;28;20260;-61
2022/08/16 09:53:19;;;;;;;5.30;3.22;;;;;;;31.99;nan;-24699.31;4954400;28;20517;-61
2022/08/16 09:55:48;;;;;;;6.45;4.00;;;;;;;31.85;nan;-24695.50;4954397;28;20762;-60
2022/08/16 09:58:13;;;;;;;5.35;3.35;;;;;;;31.82;nan;-24694.56;4954748;28;20231;-62
2022/08/16 10:00:39;;;;;;;6.18;4.03;;;;;;;32.26;nan;-24706.50;4954773;28;20222;-60
2022/08/16 10:03:04;;;;;;;5.13;3.42;;;;;;;31.88;nan;-24696.19;4954141;28;20260;-63
2022/08/16 10:05:32;;;;;;;4.57;3.35;;;;;;;31.87;nan;-24695.91;4954309;28;20641;-61
2022/08/16 10:07:58;;;;;;;5.25;3.67;;;;;;;32.17;nan;-24703.94;4954335;28;20177;-59
2022/08/16 10:10:24;;;;;;;6.00;3.45;;;;;;;31.77;nan;-24693.31;4954123;28;20185;-61
2022/08/16 10:13:10;;;;;;;5.57;3.58;;;;;;;31.86;nan;-24695.63;4954047;28;20256;-62
2022/08/16 10:15:39;;;;;;;10.95;3.97;;;;;;;32.03;nan;-24700.25;4954076;28;20225;-63
2022/08/16 10:18:07;;;;;;;4.22;2.80;;;;;;;32.19;nan;-24704.47;4954084;28;20220;-61
2022/08/16 10:20:37;;;;;;;5.90;3.13;;;;;;;32.48;nan;-24712.19;4954258;28;20268;-61
2022/08/16 10:23:05;;;;;;;4.10;2.90;;;;;;;32.30;nan;-24707.59;4954214;28;20170;-60
2022/08/16 10:25:30;;;;;;;6.45;3.28;;;;;;;32.37;nan;-24709.34;4954112;28;20173;-61
2022/08/16 10:27:56;;;;;;;4.97;3.30;;;;;;;32.33;nan;-24708.41;4954073;28;20188;-61
2022/08/16 10:30:21;;;;;;;6.75;3.63;;;;;;;32.32;nan;-24708.13;4954163;28;20177;-61
2022/08/16 10:32:47;;;;;;;4.65;3.30;;;;;;;32.42;nan;-24710.72;4954199;28;20547;-62
2022/08/16 10:35:12;;;;;;;5.72;3.80;;;;;;;32.81;nan;-24721.28;4953907;28;20637;-60
2022/08/16 10:37:38;;;;;;;6.57;3.47;;;;;;;33.14;nan;-24730.09;4953589;28;20196;-60
2022/08/16 10:40:06;;;;;;;4.88;3.13;;;;;;;33.03;nan;-24727.13;4953797;28;20225;-60
2022/08/16 10:42:32;;;;;;;4.07;2.83;;;;;;;32.68;nan;-24717.63;4953885;28;20174;-61
2022/08/16 10:44:57;;;;;;;4.57;3.22;;;;;;;32.71;nan;-24718.44;4954255;28;20181;-60
2022/08/16 10:47:22;;;;;;;4.72;3.30;;;;;;;33.09;nan;-24728.75;4954056;28;20177;-62
2022/08/16 10:49:48;;;;;;;5.57;3.40;;;;;;;33.25;nan;-24733.09;4953796;28;20181;-59
2022/08/16 10:52:14;;;;;;;4.78;3.15;;;;;;;32.92;nan;-24724.16;4954372;28;20173;-60
2022/08/16 10:54:39;;;;;;;4.45;2.90;;;;;;;33.14;nan;-24730.09;4953953;28;20176;-60
2022/08/16 10:57:05;;;;;;;5.30;3.15;;;;;;;33.47;nan;-24738.78;4953533;28;20691;-62
2022/08/16 10:59:32;;;;;;;5.13;3.22;;;;;;;33.35;nan;-24735.53;4953659;28;20176;-63
2022/08/16 11:01:58;;;;;;;4.80;3.40;;;;;;;33.19;nan;-24731.47;4953562;28;20240;-62
2022/08/16 11:04:25;;;;;;;4.60;2.92;;;;;;;33.11;nan;-24729.28;4954446;28;20169;-60
2022/08/16 11:06:51;;;;;;;4.20;3.08;;;;;;;32.96;nan;-24725.22;4954179;28;20216;-60
2022/08/16 11:09:16;;;;;;;4.90;3.50;;;;;;;32.92;nan;-24724.16;4953528;28;20241;-59
2022/08/16 11:11:41;;;;;;;5.93;3.47;;;;;;;33.23;nan;-24732.56;4953785;28;20625;-60
2022/08/16 11:14:07;;;;;;;5.03;3.15;;;;;;;33.17;nan;-24730.78;4954100;28;20208;-62
2022/08/16 11:16:32;;;;;;;4.65;3.10;;;;;;;33.07;nan;-24728.06;4956086;28;20267;-59
2022/08/16 11:18:58;;;;;;;5.82;3.33;;;;;;;33.33;nan;-24734.97;4957387;28;20644;-61
2022/08/16 11:21:24;;;;;;;5.07;3.13;;;;;;;33.61;nan;-24742.56;4956717;28;20576;-60
2022/08/16 11:23:52;;;;;;;5.85;3.42;;;;;;;33.55;nan;-24741.06;4957632;28;20188;-61
2022/08/16 11:26:18;;;;;;;4.47;3.13;;;;;;;33.33;nan;-24734.97;4956709;28;20648;-60
2022/08/16 11:28:44;;;;;;;4.72;3.30;;;;;;;33.43;nan;-24737.84;4957094;28;20240;-60
2022/08/16 11:31:10;;;;;;;5.97;3.35;;;;;;;33.81;nan;-24747.97;4957381;28;20585;-61
2022/08/16 11:33:35;;;;;;;4.68;2.97;;;;;;;33.88;nan;-24749.75;4956604;28;20715;-62